createdAt,value
2023-05-05T00:01:23.228Z,6.83
2023-05-05T00:04:23.252Z,6.85
2023-05-05T00:07:23.237Z,6.87
2023-05-05T00:10:23.256Z,6.88
2023-05-05T00:13:23.241Z,6.91
2023-05-05T00:16:23.296Z,6.94
2023-05-05T00:19:23.248Z,6.9
2023-05-05T00:22:23.265Z,6.93
2023-05-05T00:25:23.275Z,6.92
2023-05-05T00:28:23.266Z,6.94
2023-05-05T00:31:23.286Z,6.92
2023-05-05T00:34:23.289Z,6.93
2023-05-05T00:37:23.310Z,6.92
2023-05-05T00:40:23.319Z,6.93
2023-05-05T00:43:23.315Z,6.91
2023-05-05T00:46:23.376Z,6.9
2023-05-05T00:49:23.358Z,6.9
2023-05-05T00:52:23.331Z,6.93
2023-05-05T00:55:23.383Z,6.91
2023-05-05T00:58:23.355Z,6.92
2023-05-05T01:01:23.376Z,6.91
2023-05-05T01:04:23.366Z,6.91
2023-05-05T01:07:23.372Z,6.91
2023-05-05T01:10:23.632Z,6.93
2023-05-05T01:13:23.376Z,6.9
2023-05-05T01:16:23.433Z,6.91
2023-05-05T01:19:23.377Z,6.92
2023-05-05T01:22:23.380Z,6.92
2023-05-05T01:25:23.377Z,6.92
2023-05-05T01:28:23.376Z,6.89
2023-05-05T01:31:23.413Z,6.9
2023-05-05T01:34:23.395Z,6.91
2023-05-05T01:37:23.387Z,6.91
2023-05-05T01:40:23.388Z,6.92
2023-05-05T01:43:23.382Z,6.89
2023-05-05T01:46:23.429Z,6.89
2023-05-05T01:49:23.385Z,6.88
2023-05-05T01:52:23.392Z,6.88
2023-05-05T01:55:23.400Z,6.85
2023-05-05T01:58:23.405Z,6.86
2023-05-05T02:01:23.417Z,6.87
2023-05-05T02:04:23.388Z,6.83
2023-05-05T02:07:23.395Z,6.84
2023-05-05T02:10:23.410Z,6.87
2023-05-05T02:13:23.405Z,6.86
2023-05-05T02:16:23.498Z,6.82
2023-05-05T02:19:23.410Z,6.87
2023-05-05T02:22:23.409Z,6.88
2023-05-05T02:25:23.422Z,6.87
2023-05-05T02:28:23.410Z,6.9
2023-05-05T02:31:23.432Z,6.88
2023-05-05T02:34:23.508Z,6.87
2023-05-05T02:37:23.407Z,6.86
2023-05-05T02:40:23.432Z,6.9
2023-05-05T02:43:23.445Z,6.86
2023-05-05T02:46:23.480Z,6.85
2023-05-05T02:49:23.440Z,6.87
2023-05-05T02:52:23.434Z,6.87
2023-05-05T02:55:23.450Z,6.83
2023-05-05T02:58:23.438Z,6.84
2023-05-05T03:01:23.486Z,6.85
2023-05-05T03:04:23.434Z,6.85
2023-05-05T03:07:23.447Z,6.85
2023-05-05T03:10:23.449Z,6.87
2023-05-05T03:13:23.440Z,6.86
2023-05-05T03:16:23.494Z,6.81
2023-05-05T03:19:23.448Z,6.86
2023-05-05T03:22:23.453Z,6.86
2023-05-05T03:25:23.471Z,6.87
2023-05-05T03:28:23.462Z,6.87
2023-05-05T03:31:23.469Z,6.89
2023-05-05T03:34:23.461Z,6.89
2023-05-05T03:37:23.462Z,6.88
2023-05-05T03:40:29.890Z,6.88
2023-05-05T03:43:23.470Z,6.87
2023-05-05T03:46:23.474Z,6.89
2023-05-05T03:49:23.483Z,6.88
2023-05-05T03:52:23.486Z,6.87
2023-05-05T03:55:23.490Z,6.87
2023-05-05T03:58:23.483Z,6.87
2023-05-05T04:01:23.482Z,6.87
2023-05-05T04:04:23.491Z,6.87
2023-05-05T04:07:23.498Z,6.87
2023-05-05T04:10:23.510Z,6.86
2023-05-05T04:13:23.509Z,6.89
2023-05-05T04:16:23.620Z,6.92
2023-05-05T04:19:23.517Z,6.94
2023-05-05T04:22:23.522Z,6.92
2023-05-05T04:25:23.552Z,6.99
2023-05-05T04:28:23.529Z,6.96
2023-05-05T04:31:23.672Z,6.99
2023-05-05T04:34:23.526Z,7.02
2023-05-05T04:37:23.553Z,6.99
2023-05-05T04:40:23.542Z,7.04
2023-05-05T04:43:23.543Z,7.02
2023-05-05T04:46:23.555Z,7.01
2023-05-05T04:49:23.607Z,7
2023-05-05T04:52:23.604Z,7.04
2023-05-05T04:55:23.613Z,7.07
2023-05-05T04:58:23.589Z,7.1
2023-05-05T05:01:23.671Z,7.15
2023-05-05T05:04:23.667Z,7.14
2023-05-05T05:07:23.619Z,7.16
2023-05-05T05:10:23.644Z,7.13
2023-05-05T05:13:23.726Z,7.14
2023-05-05T05:16:23.631Z,7.16
2023-05-05T05:19:23.584Z,7.13
2023-05-05T05:22:23.579Z,7.14
2023-05-05T05:25:23.587Z,7.17
2023-05-05T05:28:23.589Z,7.22
2023-05-05T05:31:23.635Z,7.2
2023-05-05T05:34:23.598Z,7.18
2023-05-05T05:37:23.599Z,7.2
2023-05-05T05:40:23.608Z,7.23
2023-05-05T05:43:23.607Z,7.27
2023-05-05T05:46:23.949Z,7.32
2023-05-05T05:49:23.615Z,7.4
2023-05-05T05:52:23.618Z,7.44
2023-05-05T05:55:23.634Z,7.53
2023-05-05T05:58:23.631Z,7.54
2023-05-05T06:01:23.631Z,7.54
2023-05-05T06:04:23.635Z,7.51
2023-05-05T06:07:23.629Z,7.44
2023-05-05T06:10:27.718Z,7.48
2023-05-05T06:13:23.642Z,7.45
2023-05-05T06:16:23.698Z,7.41
2023-05-05T06:19:23.646Z,7.44
2023-05-05T06:22:23.667Z,7.38
2023-05-05T06:25:23.668Z,7.37
2023-05-05T06:28:23.669Z,7.36
2023-05-05T06:31:23.675Z,7.34
2023-05-05T06:34:23.677Z,7.41
2023-05-05T06:37:23.679Z,7.54
2023-05-05T06:40:23.688Z,7.66
2023-05-05T06:43:23.695Z,7.68
2023-05-05T06:46:23.711Z,7.6
2023-05-05T06:49:23.696Z,7.65
2023-05-05T06:52:23.704Z,7.59
2023-05-05T06:55:23.705Z,7.62
2023-05-05T06:58:23.710Z,7.7
2023-05-05T07:01:23.729Z,7.74
2023-05-05T07:04:23.728Z,7.69
2023-05-05T07:07:23.731Z,7.72
2023-05-05T07:10:23.744Z,7.76
2023-05-05T07:13:23.750Z,7.73
2023-05-05T07:16:23.753Z,7.79
2023-05-05T07:19:23.759Z,7.87
2023-05-05T07:22:23.763Z,7.97
2023-05-05T07:25:23.776Z,7.94
2023-05-05T07:28:23.771Z,7.87
2023-05-05T07:31:23.787Z,7.83
2023-05-05T07:34:23.786Z,7.91
2023-05-05T07:37:23.789Z,7.97
2023-05-05T07:40:23.809Z,7.85
2023-05-05T07:43:23.798Z,7.92
2023-05-05T07:46:23.833Z,7.92
2023-05-05T07:49:23.810Z,7.86
2023-05-05T07:52:33.461Z,7.97
2023-05-05T07:55:23.818Z,7.95
2023-05-05T07:58:23.824Z,7.89
2023-05-05T08:01:23.830Z,7.8
2023-05-05T08:04:23.874Z,7.83
2023-05-05T08:07:23.842Z,7.8
2023-05-05T08:10:23.864Z,7.89
2023-05-05T08:13:23.871Z,8.09
2023-05-05T08:16:23.898Z,8.06
2023-05-05T08:19:28.513Z,7.98
2023-05-05T08:22:23.890Z,7.92
2023-05-05T08:25:23.904Z,7.94
2023-05-05T08:28:23.900Z,8.08
2023-05-05T08:31:23.941Z,8.09
2023-05-05T08:34:23.927Z,8.19
2023-05-05T08:37:23.903Z,8.21
2023-05-05T08:40:23.927Z,8.16
2023-05-05T08:43:23.962Z,8.29
2023-05-05T08:46:23.956Z,8.26
2023-05-05T08:49:23.936Z,8.3
2023-05-05T08:52:23.938Z,8.5
2023-05-05T08:55:23.973Z,8.38
2023-05-05T08:58:23.960Z,8.48
2023-05-05T09:01:24.041Z,8.55
2023-05-05T09:04:23.967Z,8.55
2023-05-05T09:07:23.980Z,8.5
2023-05-05T09:10:24.669Z,8.42
2023-05-05T09:13:23.992Z,8.45
2023-05-05T09:16:24.003Z,8.47
2023-05-05T09:19:24.023Z,8.4
2023-05-05T09:22:24.010Z,8.25
2023-05-05T09:25:24.030Z,8.37
2023-05-05T09:28:24.031Z,8.29
2023-05-05T09:31:24.054Z,8.19
2023-05-05T09:34:24.047Z,7.98
2023-05-05T09:37:24.059Z,8.06
2023-05-05T09:40:24.076Z,8.25
2023-05-05T09:43:24.083Z,8.24
2023-05-05T09:46:24.139Z,8.26
2023-05-05T09:49:24.090Z,8.34
2023-05-05T09:52:24.103Z,8.27
2023-05-05T09:55:24.126Z,8.04
2023-05-05T09:58:24.151Z,8.36
2023-05-05T10:01:24.145Z,8.36
2023-05-05T10:04:24.165Z,8.24
2023-05-05T10:07:24.170Z,8.09
2023-05-05T10:10:24.156Z,8.05
2023-05-05T10:13:24.168Z,8.07
2023-05-05T10:16:24.189Z,8.02
2023-05-05T10:19:24.184Z,8.01
2023-05-05T10:22:24.190Z,7.94
2023-05-05T10:25:24.208Z,8.02
2023-05-05T10:28:24.212Z,8.03
2023-05-05T10:31:26.120Z,8.1
2023-05-05T10:34:24.263Z,8.08
2023-05-05T10:37:24.246Z,7.94
2023-05-05T10:40:24.264Z,8.02
2023-05-05T10:43:24.280Z,8.07
2023-05-05T10:46:24.287Z,8.03
2023-05-05T10:49:24.279Z,8.02
2023-05-05T10:52:24.293Z,8.09
2023-05-05T10:55:24.314Z,8.19
2023-05-05T10:58:24.310Z,8.18
2023-05-05T11:01:24.332Z,8.14
2023-05-05T11:04:24.332Z,8.27
2023-05-05T11:07:24.354Z,8.06
2023-05-05T11:10:24.357Z,8.08
2023-05-05T11:13:24.442Z,8.13
2023-05-05T11:16:24.383Z,8.36
2023-05-05T11:19:24.384Z,8.31
2023-05-05T11:22:24.572Z,8.33
2023-05-05T11:25:24.459Z,8.28
2023-05-05T11:28:24.405Z,8.28
2023-05-05T11:31:24.437Z,8.27
2023-05-05T11:34:24.418Z,8.36
2023-05-05T11:37:24.438Z,8.35
2023-05-05T11:40:24.441Z,8.26
2023-05-05T11:43:24.425Z,8.3
2023-05-05T11:46:24.487Z,8.21
2023-05-05T11:49:24.435Z,8.23
2023-05-05T11:52:24.435Z,8.13
2023-05-05T11:55:24.562Z,8.15
2023-05-05T11:58:24.450Z,8.21
2023-05-05T12:01:24.456Z,8.25
2023-05-05T12:04:24.490Z,8.22
2023-05-05T12:07:24.473Z,8.2
2023-05-05T12:10:24.486Z,8.15
2023-05-05T12:13:24.515Z,8.12
2023-05-05T12:16:24.504Z,8.23
2023-05-05T12:19:24.485Z,8.29
2023-05-05T12:22:24.490Z,8.25
2023-05-05T12:25:24.503Z,8.36
2023-05-05T12:28:24.502Z,8.46
2023-05-05T12:31:24.515Z,8.55
2023-05-05T12:34:24.510Z,8.53
2023-05-05T12:37:24.513Z,8.66
2023-05-05T12:40:24.527Z,8.6
2023-05-05T12:43:24.526Z,8.74
2023-05-05T12:46:24.554Z,8.71
2023-05-05T12:49:24.537Z,8.74
2023-05-05T12:52:24.540Z,8.14
2023-05-05T12:55:24.549Z,7.91
2023-05-05T12:58:24.542Z,7.78
2023-05-05T13:01:24.572Z,7.97
2023-05-05T13:04:24.559Z,7.72
2023-05-05T13:07:24.552Z,7.83
2023-05-05T13:10:24.576Z,7.78
2023-05-05T13:13:24.555Z,7.8
2023-05-05T13:16:24.580Z,7.85
2023-05-05T13:19:24.568Z,7.87
2023-05-05T13:22:24.587Z,7.91
2023-05-05T13:25:24.600Z,7.96
2023-05-05T13:28:24.578Z,7.81
2023-05-05T13:31:24.601Z,7.88
2023-05-05T13:34:24.580Z,7.95
2023-05-05T13:37:24.583Z,8.07
2023-05-05T13:40:25.907Z,8.15
2023-05-05T13:43:24.599Z,8.09
2023-05-05T13:46:24.625Z,8.01
2023-05-05T13:49:24.607Z,8.04
2023-05-05T13:52:24.612Z,7.94
2023-05-05T13:55:24.630Z,7.97
2023-05-05T13:58:24.621Z,8
2023-05-05T14:01:24.656Z,7.96
2023-05-05T14:04:24.827Z,8.02
2023-05-05T14:07:24.639Z,8.06
2023-05-05T14:10:24.650Z,8.17
2023-05-05T14:13:24.630Z,8.15
2023-05-05T14:16:24.657Z,8.07
2023-05-05T14:19:24.646Z,8.1
2023-05-05T14:22:24.643Z,8
2023-05-05T14:25:24.659Z,7.97
2023-05-05T14:28:24.651Z,7.98
2023-05-05T14:31:24.690Z,8.06
2023-05-05T14:34:24.659Z,7.99
2023-05-05T14:37:24.662Z,8.05
2023-05-05T14:40:24.670Z,8.04
2023-05-05T14:43:24.667Z,8.04
2023-05-05T14:46:24.721Z,7.94
2023-05-05T14:49:24.687Z,8.02
2023-05-05T14:52:24.708Z,8.05
2023-05-05T14:55:24.724Z,8.05
2023-05-05T14:58:24.735Z,8.09
2023-05-05T15:01:24.730Z,8.04
2023-05-05T15:04:24.731Z,8.06
2023-05-05T15:07:24.803Z,8.19
2023-05-05T15:10:24.740Z,8.25
2023-05-05T15:13:24.755Z,8.25
2023-05-05T15:16:24.777Z,8.32
2023-05-05T15:19:24.776Z,8.42
2023-05-05T15:22:24.767Z,8.5
2023-05-05T15:25:24.787Z,8.59
2023-05-05T15:28:24.768Z,8.66
2023-05-05T15:31:24.808Z,8.69
2023-05-05T15:34:24.791Z,8.71
2023-05-05T15:37:24.812Z,8.69
2023-05-05T15:40:24.815Z,8.66
2023-05-05T15:43:24.807Z,8.79
2023-05-05T15:46:24.830Z,8.79
2023-05-05T15:49:24.827Z,8.76
2023-05-05T15:52:24.823Z,8.83
2023-05-05T15:55:24.843Z,8.9
2023-05-05T15:58:24.838Z,8.93
2023-05-05T16:01:24.859Z,8.9
2023-05-05T16:04:24.841Z,8.88
2023-05-05T16:07:24.847Z,8.85
2023-05-05T16:10:24.867Z,8.76
2023-05-05T16:13:24.860Z,8.69
2023-05-05T16:16:24.893Z,8.67
2023-05-05T16:19:24.860Z,8.67
2023-05-05T16:22:24.868Z,8.72
2023-05-05T16:25:24.877Z,8.78
2023-05-05T16:28:24.873Z,8.78
2023-05-05T16:31:24.912Z,8.81
2023-05-05T16:34:24.881Z,8.74
2023-05-05T16:37:24.890Z,8.76
2023-05-05T16:40:24.899Z,8.77
2023-05-05T16:43:24.890Z,8.78
2023-05-05T16:46:24.943Z,8.79
2023-05-05T16:49:24.905Z,8.78
2023-05-05T16:52:25.181Z,8.78
2023-05-05T16:55:24.920Z,8.81
2023-05-05T16:58:24.908Z,8.79
2023-05-05T17:01:24.936Z,8.77
2023-05-05T17:04:24.927Z,8.81
2023-05-05T17:07:24.939Z,8.83
2023-05-05T17:10:24.943Z,8.78
2023-05-05T17:13:24.932Z,8.81
2023-05-05T17:16:24.958Z,8.84
2023-05-05T17:19:24.940Z,8.91
2023-05-05T17:22:24.954Z,9.02
2023-05-05T17:25:24.963Z,9.1
2023-05-05T17:28:24.962Z,9.24
2023-05-05T17:31:24.972Z,9.31
2023-05-05T17:34:25.093Z,9.56
2023-05-05T17:37:24.972Z,9.68
2023-05-05T17:40:24.995Z,9.84
2023-05-05T17:43:24.985Z,9.94
2023-05-05T17:46:25.067Z,9.87
2023-05-05T17:49:24.989Z,9.81
2023-05-05T17:52:24.993Z,9.91
2023-05-05T17:55:25.014Z,9.87
2023-05-05T17:58:25.011Z,9.93
2023-05-05T18:01:25.019Z,9.87
2023-05-05T18:04:25.026Z,10.02
2023-05-05T18:07:25.012Z,10
2023-05-05T18:10:25.041Z,10.16
2023-05-05T18:13:25.028Z,10.07
2023-05-05T18:16:25.106Z,10.19
2023-05-05T18:19:25.046Z,10.23
2023-05-05T18:22:25.047Z,10.3
2023-05-05T18:25:25.059Z,10.23
2023-05-05T18:28:25.062Z,10.27
2023-05-05T18:31:25.112Z,10.19
2023-05-05T18:34:25.059Z,10.2
2023-05-05T18:37:25.070Z,10.32
2023-05-05T18:40:25.074Z,10.27
2023-05-05T18:43:25.100Z,10.31
2023-05-05T18:46:25.103Z,10.3
2023-05-05T18:49:25.087Z,10.38
2023-05-05T18:52:25.094Z,10.4
2023-05-05T18:55:25.105Z,10.43
2023-05-05T18:58:25.107Z,10.4
2023-05-05T19:01:25.135Z,10.56
2023-05-05T19:04:31.116Z,10.51
2023-05-05T19:07:34.795Z,10.53
2023-05-05T19:10:25.167Z,10.57
2023-05-05T19:13:25.127Z,10.54
2023-05-05T19:16:25.211Z,10.57
2023-05-05T19:19:25.134Z,10.58
2023-05-05T19:22:25.150Z,10.52
2023-05-05T19:25:25.159Z,10.55
2023-05-05T19:28:25.157Z,10.5
2023-05-05T19:31:25.196Z,10.51
2023-05-05T19:34:25.168Z,10.5
2023-05-05T19:37:25.164Z,10.54
2023-05-05T19:40:25.185Z,10.55
2023-05-05T19:43:25.177Z,10.58
2023-05-05T19:46:25.202Z,10.49
2023-05-05T19:49:25.191Z,10.53
2023-05-05T19:52:25.205Z,10.52
2023-05-05T19:55:25.208Z,10.54
2023-05-05T19:58:25.196Z,10.54
2023-05-05T20:01:25.253Z,10.48
2023-05-05T20:04:25.214Z,10.51
2023-05-05T20:07:25.212Z,10.52
2023-05-05T20:10:25.231Z,10.53
2023-05-05T20:13:25.223Z,10.52
2023-05-05T20:16:25.239Z,10.45
2023-05-05T20:19:25.246Z,10.47
2023-05-05T20:22:25.243Z,10.5
2023-05-05T20:25:25.253Z,10.45
2023-05-05T20:28:25.249Z,10.43
2023-05-05T20:31:25.297Z,10.42
2023-05-05T20:34:25.311Z,10.35
2023-05-05T20:37:25.363Z,10.37
2023-05-05T20:40:25.287Z,10.38
2023-05-05T20:43:25.295Z,10.39
2023-05-05T20:46:25.288Z,10.4
2023-05-05T20:49:25.292Z,10.4
2023-05-05T20:52:25.297Z,10.41
2023-05-05T20:55:25.401Z,10.42
2023-05-05T20:58:25.305Z,10.41
2023-05-05T21:01:25.323Z,10.41
2023-05-05T21:04:25.308Z,10.41
2023-05-05T21:07:25.314Z,10.37
2023-05-05T21:10:25.321Z,10.34
2023-05-05T21:13:25.325Z,10.34
2023-05-05T21:16:25.366Z,10.34
2023-05-05T21:19:25.332Z,10.34
2023-05-05T21:22:25.348Z,10.36
2023-05-05T21:25:25.355Z,10.36
2023-05-05T21:28:25.344Z,10.37
2023-05-05T21:31:25.353Z,10.38
2023-05-05T21:34:25.360Z,10.3
2023-05-05T21:37:25.368Z,10.31
2023-05-05T21:40:25.378Z,10.3
2023-05-05T21:43:25.373Z,10.3
2023-05-05T21:46:25.387Z,10.29
2023-05-05T21:49:25.379Z,10.28
2023-05-05T21:52:25.387Z,10.26
2023-05-05T21:55:25.415Z,10.25
2023-05-05T21:58:25.400Z,10.17
2023-05-05T22:01:25.415Z,10.16
2023-05-05T22:04:25.401Z,10.17
2023-05-05T22:07:25.401Z,10.17
2023-05-05T22:10:25.429Z,10.17
2023-05-05T22:13:25.406Z,10.17
2023-05-05T22:16:25.540Z,10.18
2023-05-05T22:19:25.418Z,10.17
2023-05-05T22:22:25.419Z,10.09
2023-05-05T22:25:25.436Z,10.14
2023-05-05T22:28:25.433Z,10.13
2023-05-05T22:31:25.440Z,10.12
2023-05-05T22:34:25.442Z,10.12
2023-05-05T22:37:25.437Z,10.13
2023-05-05T22:40:25.461Z,10.07
2023-05-05T22:43:25.456Z,10.06
2023-05-05T22:46:25.511Z,10.07
2023-05-05T22:49:25.520Z,10.06
2023-05-05T22:52:25.472Z,10.05
2023-05-05T22:55:25.498Z,9.97
2023-05-05T22:58:25.477Z,9.95
2023-05-05T23:01:25.529Z,9.95
2023-05-05T23:04:25.509Z,9.95
2023-05-05T23:07:25.494Z,9.96
2023-05-05T23:10:25.518Z,9.97
2023-05-05T23:13:25.499Z,9.97
2023-05-05T23:16:25.530Z,9.9
2023-05-05T23:19:25.521Z,9.89
2023-05-05T23:22:25.519Z,9.88
2023-05-05T23:25:25.540Z,9.88
2023-05-05T23:28:25.543Z,9.84
2023-05-05T23:31:25.647Z,9.82
2023-05-05T23:34:25.550Z,9.74
2023-05-05T23:37:25.551Z,9.74
2023-05-05T23:40:25.569Z,9.69
2023-05-05T23:43:25.546Z,9.69
2023-05-05T23:46:25.567Z,9.71
2023-05-05T23:49:25.573Z,9.63
2023-05-05T23:52:25.575Z,9.67
2023-05-05T23:55:25.576Z,9.65
2023-05-05T23:58:25.574Z,9.65
